createdAt,value
2018-01-20T00:00:36.633Z,12.70
2018-01-20T00:03:06.121Z,6.18
2018-01-20T00:05:35.632Z,17.33
2018-01-20T00:08:05.105Z,7.47
2018-01-20T00:10:40.488Z,7.82
2018-01-20T00:13:09.935Z,6.05
2018-01-20T00:15:39.444Z,6.00
2018-01-20T00:18:08.909Z,6.95
2018-01-20T00:20:38.407Z,7.57
2018-01-20T00:23:07.874Z,6.50
2018-01-20T00:25:37.487Z,6.43
2018-01-20T00:28:07.068Z,6.25
2018-01-20T00:30:36.527Z,8.23
2018-01-20T00:33:06.010Z,7.43
2018-01-20T00:35:35.677Z,6.53
2018-01-20T00:38:05.182Z,7.62
2018-01-20T00:40:34.645Z,10.85
2018-01-20T00:43:04.140Z,8.48
2018-01-20T00:45:33.818Z,6.80
2018-01-20T00:48:03.362Z,7.80
2018-01-20T00:50:32.874Z,7.70
2018-01-20T00:53:02.401Z,7.20
2018-01-20T00:55:31.916Z,5.45
2018-01-20T00:58:01.395Z,6.97
2018-01-20T01:00:31.021Z,4.87
2018-01-20T01:03:00.510Z,5.95
2018-01-20T01:05:30.197Z,6.22
2018-01-20T01:07:59.669Z,5.87
2018-01-20T01:10:29.188Z,6.45
2018-01-20T01:12:58.659Z,4.40
2018-01-20T01:15:28.169Z,3.90
2018-01-20T01:17:57.639Z,4.80
2018-01-20T01:20:27.148Z,6.30
2018-01-20T01:22:56.650Z,7.82
2018-01-20T01:25:26.134Z,6.78
2018-01-20T01:27:55.791Z,10.65
2018-01-20T01:30:25.283Z,6.05
2018-01-20T01:32:54.789Z,5.62
2018-01-20T01:35:24.252Z,9.02
2018-01-20T01:37:53.879Z,8.20
2018-01-20T01:40:23.396Z,7.45
2018-01-20T01:42:52.962Z,6.97
2018-01-20T01:45:22.485Z,7.07
2018-01-20T01:47:52.096Z,7.60
2018-01-20T01:50:21.611Z,10.05
2018-01-20T01:52:51.122Z,6.57
2018-01-20T01:55:20.619Z,9.82
2018-01-20T01:57:50.084Z,10.13
2018-01-20T02:00:19.591Z,7.55
2018-01-20T02:02:49.077Z,8.50
2018-01-20T02:05:18.590Z,8.23
2018-01-20T02:07:48.088Z,11.40
2018-01-20T02:10:17.591Z,9.02
2018-01-20T02:12:47.084Z,10.40
2018-01-20T02:15:16.589Z,13.00
2018-01-20T02:17:46.096Z,11.07
2018-01-20T02:20:15.574Z,11.35
2018-01-20T02:22:45.095Z,13.40
2018-01-20T02:25:14.535Z,10.63
2018-01-20T02:27:44.057Z,8.93
2018-01-20T02:30:13.648Z,10.35
2018-01-20T02:32:43.202Z,8.48
2018-01-20T02:35:12.688Z,10.63
2018-01-20T02:37:42.191Z,9.63
2018-01-20T02:40:11.671Z,10.25
2018-01-20T02:42:41.162Z,11.88
2018-01-20T02:45:10.674Z,9.40
2018-01-20T02:47:40.181Z,8.38
2018-01-20T02:50:09.643Z,9.93
2018-01-20T02:52:39.147Z,8.60
2018-01-20T02:55:08.608Z,11.18
2018-01-20T02:57:38.119Z,8.52
2018-01-20T03:00:07.600Z,7.85
2018-01-20T03:02:37.081Z,8.10
2018-01-20T03:05:06.539Z,9.95
2018-01-20T03:07:36.043Z,8.18
2018-01-20T03:10:05.503Z,7.55
2018-01-20T03:12:34.993Z,7.07
2018-01-20T03:15:04.516Z,7.15
2018-01-20T03:17:33.988Z,7.35
2018-01-20T03:20:03.541Z,5.97
2018-01-20T03:22:32.991Z,8.10
2018-01-20T03:25:02.510Z,3.22
2018-01-20T03:27:32.008Z,4.87
2018-01-20T03:30:01.515Z,4.72
2018-01-20T03:32:31.022Z,5.35
2018-01-20T03:35:00.495Z,3.30
2018-01-20T03:37:29.999Z,4.53
2018-01-20T03:39:59.509Z,4.75
2018-01-20T03:42:29.203Z,4.53
2018-01-20T03:44:58.685Z,2.97
2018-01-20T03:47:28.165Z,4.37
2018-01-20T03:49:57.754Z,3.00
2018-01-20T03:52:27.256Z,3.60
2018-01-20T03:54:56.712Z,3.35
2018-01-20T03:57:26.214Z,3.70
2018-01-20T03:59:55.669Z,7.03
2018-01-20T04:02:25.212Z,7.78
2018-01-20T04:04:54.800Z,4.93
2018-01-20T04:07:24.293Z,4.80
2018-01-20T04:09:53.750Z,5.55
2018-01-20T04:12:23.282Z,4.70
2018-01-20T04:14:52.753Z,6.18
2018-01-20T04:17:22.261Z,6.15
2018-01-20T04:19:51.759Z,8.50
2018-01-20T04:22:21.218Z,5.70
2018-01-20T04:24:50.732Z,9.50
2018-01-20T04:27:20.219Z,10.00
2018-01-20T04:29:49.732Z,8.73
2018-01-20T04:32:19.229Z,8.10
2018-01-20T04:34:48.750Z,7.62
2018-01-20T04:37:18.211Z,8.32
2018-01-20T04:39:47.724Z,8.13
2018-01-20T04:42:17.302Z,10.85
2018-01-20T04:44:46.816Z,9.80
2018-01-20T04:47:16.293Z,8.80
2018-01-20T04:49:45.780Z,10.18
2018-01-20T04:52:15.272Z,11.65
2018-01-20T04:54:44.737Z,10.32
2018-01-20T04:57:14.284Z,9.60
2018-01-20T04:59:43.750Z,13.48
2018-01-20T05:02:13.251Z,9.23
2018-01-20T05:04:42.707Z,16.95
2018-01-20T05:07:12.348Z,10.23
2018-01-20T05:09:41.858Z,14.05
2018-01-20T05:12:11.390Z,11.48
2018-01-20T05:14:40.823Z,9.98
2018-01-20T05:17:10.341Z,10.40
2018-01-20T05:19:39.870Z,16.62
2018-01-20T05:22:09.352Z,12.25
2018-01-20T05:24:38.840Z,12.45
2018-01-20T05:27:08.347Z,11.85
2018-01-20T05:29:37.861Z,11.45
2018-01-20T05:32:07.364Z,11.75
2018-01-20T05:34:36.979Z,11.50
2018-01-20T05:37:06.457Z,10.88
2018-01-20T05:39:35.963Z,12.07
2018-01-20T05:42:05.446Z,12.15
2018-01-20T05:44:34.956Z,11.95
2018-01-20T05:47:04.428Z,10.52
2018-01-20T05:49:34.879Z,15.45
2018-01-20T05:52:04.340Z,14.45
2018-01-20T05:54:33.869Z,13.05
2018-01-20T05:57:03.327Z,10.02
2018-01-20T05:59:32.863Z,11.52
2018-01-20T06:02:02.384Z,14.52
2018-01-20T06:04:31.860Z,14.80
2018-01-20T06:07:01.564Z,21.48
2018-01-20T06:09:31.041Z,15.23
2018-01-20T06:12:00.955Z,13.57
2018-01-20T06:14:30.409Z,10.93
2018-01-20T06:16:59.989Z,11.20
2018-01-20T06:19:29.462Z,16.92
2018-01-20T06:21:59.104Z,17.80
2018-01-20T06:24:28.596Z,29.30
2018-01-20T06:26:58.115Z,19.80
2018-01-20T06:29:27.581Z,10.73
2018-01-20T06:31:57.085Z,10.48
2018-01-20T06:34:26.594Z,10.05
2018-01-20T06:36:56.049Z,9.30
2018-01-20T06:39:25.554Z,8.27
2018-01-20T06:41:55.045Z,9.60
2018-01-20T06:44:24.523Z,8.68
2018-01-20T06:46:53.989Z,9.18
2018-01-20T06:49:23.524Z,11.27
2018-01-20T06:51:53.001Z,11.57
2018-01-20T06:54:22.461Z,11.70
2018-01-20T06:56:51.970Z,11.63
2018-01-20T06:59:21.424Z,11.30
2018-01-20T07:01:50.914Z,12.25
2018-01-20T07:04:20.392Z,12.05
2018-01-20T07:06:50.089Z,8.18
2018-01-20T07:09:19.573Z,9.55
2018-01-20T07:11:49.132Z,10.23
2018-01-20T07:14:18.585Z,9.07
2018-01-20T07:16:48.243Z,9.52
2018-01-20T07:19:17.704Z,11.57
2018-01-20T07:21:47.207Z,9.57
2018-01-20T07:24:16.702Z,12.88
2018-01-20T07:26:46.186Z,12.35
2018-01-20T07:29:15.690Z,13.62
2018-01-20T07:31:45.150Z,9.13
2018-01-20T07:34:14.665Z,12.48
2018-01-20T07:36:44.185Z,10.57
2018-01-20T07:39:13.684Z,8.85
2018-01-20T07:41:43.160Z,8.60
2018-01-20T07:44:12.819Z,11.82
2018-01-20T07:46:42.274Z,8.52
2018-01-20T07:49:11.789Z,10.07
2018-01-20T07:51:41.309Z,11.25
2018-01-20T07:54:10.765Z,11.65
2018-01-20T07:56:40.267Z,9.20
2018-01-20T07:59:09.768Z,9.88
2018-01-20T08:01:39.275Z,10.07
2018-01-20T08:04:08.756Z,10.23
2018-01-20T08:06:38.264Z,8.80
2018-01-20T08:09:07.873Z,9.45
2018-01-20T08:11:37.401Z,12.77
2018-01-20T08:14:06.924Z,10.40
2018-01-20T08:16:36.406Z,9.40
2018-01-20T08:19:05.891Z,8.82
2018-01-20T08:21:35.381Z,10.07
2018-01-20T08:24:04.879Z,9.60
2018-01-20T08:26:34.355Z,8.40
2018-01-20T08:29:03.882Z,11.50
2018-01-20T08:31:33.347Z,8.93
2018-01-20T08:34:02.846Z,13.45
2018-01-20T08:36:32.351Z,10.65
2018-01-20T08:39:01.883Z,11.75
2018-01-20T08:41:31.519Z,11.60
2018-01-20T08:44:01.012Z,9.02
2018-01-20T08:46:30.502Z,8.32
2018-01-20T08:48:59.974Z,11.40
2018-01-20T08:51:29.505Z,9.32
2018-01-20T08:53:58.949Z,9.55
2018-01-20T08:56:28.456Z,9.52
2018-01-20T08:58:57.954Z,14.87
2018-01-20T09:01:27.547Z,13.35
2018-01-20T09:03:56.990Z,11.45
2018-01-20T09:06:26.509Z,11.98
2018-01-20T09:08:56.063Z,15.55
2018-01-20T09:11:25.515Z,14.95
2018-01-20T09:13:55.032Z,13.35
2018-01-20T09:16:24.511Z,14.63
2018-01-20T09:18:54.014Z,13.75
2018-01-20T09:21:23.536Z,14.02
2018-01-20T09:23:53.028Z,12.48
2018-01-20T09:26:22.506Z,10.95
2018-01-20T09:28:51.968Z,11.20
2018-01-20T09:31:21.483Z,9.05
2018-01-20T09:33:50.985Z,8.23
2018-01-20T09:36:20.466Z,10.38
2018-01-20T09:38:50.033Z,6.22
2018-01-20T09:41:19.506Z,3.65
2018-01-20T09:43:48.990Z,3.15
2018-01-20T09:46:18.448Z,4.18
2018-01-20T09:48:48.000Z,2.45
2018-01-20T09:51:17.452Z,3.75
2018-01-20T09:53:46.945Z,4.50
2018-01-20T09:56:16.418Z,3.67
2018-01-20T09:58:45.902Z,4.45
2018-01-20T10:01:15.370Z,4.55
2018-01-20T10:03:44.862Z,3.25
2018-01-20T10:06:14.346Z,3.40
2018-01-20T10:08:43.892Z,4.15
2018-01-20T10:11:13.373Z,4.68
2018-01-20T10:13:42.874Z,3.42
2018-01-20T10:16:12.488Z,3.97
2018-01-20T10:18:41.962Z,3.58
2018-01-20T10:21:11.442Z,5.78
2018-01-20T10:23:40.930Z,4.05
2018-01-20T10:26:10.454Z,4.40
2018-01-20T10:28:40.055Z,4.00
2018-01-20T10:31:09.561Z,5.85
2018-01-20T10:33:39.072Z,5.45
2018-01-20T10:36:08.545Z,5.68
2018-01-20T10:38:38.070Z,4.87
2018-01-20T10:41:07.530Z,6.47
2018-01-20T10:43:37.033Z,5.43
2018-01-20T10:46:06.517Z,4.40
2018-01-20T10:48:36.069Z,5.00
2018-01-20T10:51:05.574Z,5.37
2018-01-20T10:53:35.047Z,5.85
2018-01-20T10:56:04.542Z,5.35
2018-01-20T10:58:34.104Z,5.65
2018-01-20T11:01:03.594Z,8.10
2018-01-20T11:03:33.043Z,4.95
2018-01-20T11:06:02.534Z,7.15
2018-01-20T11:08:32.043Z,6.75
2018-01-20T11:11:01.564Z,7.32
2018-01-20T11:13:31.030Z,6.43
2018-01-20T11:16:00.567Z,5.95
2018-01-20T11:18:30.105Z,6.82
2018-01-20T11:20:59.605Z,7.47
2018-01-20T11:23:29.128Z,6.10
2018-01-20T11:25:58.579Z,8.00
2018-01-20T11:28:28.124Z,6.75
2018-01-20T11:30:57.596Z,8.45
2018-01-20T11:33:27.199Z,5.82
2018-01-20T11:35:56.670Z,7.70
2018-01-20T11:38:26.256Z,6.07
2018-01-20T11:40:55.736Z,6.87
2018-01-20T11:43:25.251Z,7.37
2018-01-20T11:45:54.724Z,7.40
2018-01-20T11:48:24.263Z,6.87
2018-01-20T11:50:53.893Z,7.15
2018-01-20T11:53:23.402Z,6.87
2018-01-20T11:55:52.879Z,7.80
2018-01-20T11:58:22.348Z,10.45
2018-01-20T12:00:51.842Z,5.93
2018-01-20T12:03:21.311Z,6.05
2018-01-20T12:05:50.850Z,6.35
2018-01-20T12:08:20.443Z,7.87
2018-01-20T12:10:49.992Z,4.95
2018-01-20T12:13:19.557Z,6.20
2018-01-20T12:15:49.033Z,6.93
2018-01-20T12:18:18.522Z,6.65
2018-01-20T12:20:48.047Z,7.50
2018-01-20T12:23:17.533Z,8.13
2018-01-20T12:25:47.058Z,7.57
2018-01-20T12:28:16.632Z,9.15
2018-01-20T12:30:46.116Z,7.93
2018-01-20T12:33:15.635Z,7.28
2018-01-20T12:35:45.132Z,6.40
2018-01-20T12:38:14.673Z,9.40
2018-01-20T12:40:44.202Z,7.87
2018-01-20T12:43:13.691Z,6.90
2018-01-20T12:45:43.151Z,6.25
2018-01-20T12:48:12.667Z,7.25
2018-01-20T12:50:42.143Z,7.50
2018-01-20T12:53:11.650Z,7.28
2018-01-20T12:55:41.207Z,9.20
2018-01-20T12:58:10.707Z,7.57
2018-01-20T13:00:40.324Z,8.90
2018-01-20T13:03:09.817Z,8.85
2018-01-20T13:05:39.301Z,7.47
2018-01-20T13:08:08.816Z,6.28
2018-01-20T13:10:38.372Z,5.20
2018-01-20T13:13:07.851Z,7.05
2018-01-20T13:15:37.357Z,7.00
2018-01-20T13:18:06.941Z,7.15
2018-01-20T13:20:36.392Z,7.57
2018-01-20T13:23:05.923Z,8.30
2018-01-20T13:25:35.388Z,7.03
2018-01-20T13:28:04.931Z,8.55
2018-01-20T13:30:34.421Z,7.40
2018-01-20T13:33:04.013Z,7.40
2018-01-20T13:35:33.480Z,5.03
2018-01-20T13:38:03.011Z,5.35
2018-01-20T13:40:32.498Z,5.90
2018-01-20T13:43:02.003Z,5.35
2018-01-20T13:45:31.520Z,5.47
2018-01-20T13:48:01.022Z,6.82
2018-01-20T13:50:30.514Z,8.82
2018-01-20T13:52:59.983Z,4.55
2018-01-20T13:55:29.624Z,5.55
2018-01-20T13:57:59.129Z,8.20
2018-01-20T14:00:28.645Z,8.77
2018-01-20T14:02:58.283Z,6.60
2018-01-20T14:05:27.742Z,4.03
2018-01-20T14:07:57.656Z,4.72
2018-01-20T14:10:27.109Z,5.22
2018-01-20T14:12:56.644Z,3.95
2018-01-20T14:15:26.090Z,5.75
2018-01-20T14:17:55.617Z,6.00
2018-01-20T14:20:25.123Z,5.57
2018-01-20T14:22:54.622Z,3.45
2018-01-20T14:25:24.156Z,5.18
2018-01-20T14:27:53.626Z,7.32
2018-01-20T14:30:23.115Z,7.78
2018-01-20T14:32:52.566Z,4.62
2018-01-20T14:35:22.119Z,5.68
2018-01-20T14:37:51.588Z,6.12
2018-01-20T14:40:21.096Z,4.32
2018-01-20T14:42:50.596Z,5.70
2018-01-20T14:45:20.113Z,4.28
2018-01-20T14:47:49.610Z,4.22
2018-01-20T14:50:19.078Z,5.65
2018-01-20T14:52:48.641Z,6.22
2018-01-20T14:55:18.295Z,4.87
2018-01-20T14:57:48.001Z,4.18
2018-01-20T15:00:18.132Z,8.10
2018-01-20T15:02:47.602Z,5.68
2018-01-20T15:05:17.092Z,5.32
2018-01-20T15:07:46.571Z,7.82
2018-01-20T15:10:16.119Z,5.93
2018-01-20T15:12:45.574Z,7.25
2018-01-20T15:15:15.071Z,7.93
2018-01-20T15:17:44.569Z,7.03
2018-01-20T15:20:14.104Z,5.72
2018-01-20T15:22:43.630Z,4.47
2018-01-20T15:25:13.135Z,6.53
2018-01-20T15:27:43.053Z,6.07
2018-01-20T15:30:12.668Z,4.18
2018-01-20T15:32:42.128Z,5.43
2018-01-20T15:35:11.644Z,5.18
2018-01-20T15:37:41.125Z,4.65
2018-01-20T15:40:10.643Z,8.07
2018-01-20T15:42:40.295Z,4.95
2018-01-20T15:45:09.904Z,4.82
2018-01-20T15:47:39.400Z,5.78
2018-01-20T15:50:08.911Z,4.45
2018-01-20T15:52:38.436Z,6.85
2018-01-20T15:55:07.922Z,5.43
2018-01-20T15:57:37.411Z,7.15
2018-01-20T16:00:06.987Z,6.85
2018-01-20T16:02:36.482Z,10.63
2018-01-20T16:05:05.980Z,5.93
2018-01-20T16:07:35.556Z,10.27
2018-01-20T16:10:05.060Z,12.68
2018-01-20T16:12:34.555Z,6.80
2018-01-20T16:15:04.077Z,10.27
2018-01-20T16:17:33.702Z,5.95
2018-01-20T16:20:03.335Z,8.50
2018-01-20T16:22:32.916Z,9.20
2018-01-20T16:25:02.465Z,10.07
2018-01-20T16:27:31.937Z,9.27
2018-01-20T16:30:01.524Z,14.30
2018-01-20T16:32:31.082Z,11.77
2018-01-20T16:35:00.677Z,10.25
2018-01-20T16:37:30.207Z,13.18
2018-01-20T16:39:59.668Z,16.05
2018-01-20T16:42:29.232Z,16.15
2018-01-20T16:44:58.705Z,16.23
2018-01-20T16:47:28.247Z,15.57
2018-01-20T16:49:57.721Z,13.90
2018-01-20T16:52:27.350Z,12.00
2018-01-20T16:54:56.850Z,14.20
2018-01-20T16:57:26.389Z,19.98
2018-01-20T16:59:55.858Z,23.55
2018-01-20T17:02:25.416Z,21.98
2018-01-20T17:04:54.908Z,17.92
2018-01-20T17:07:24.407Z,20.02
2018-01-20T17:09:53.874Z,19.75
2018-01-20T17:12:23.388Z,18.25
2018-01-20T17:14:53.029Z,17.65
2018-01-20T17:17:22.535Z,17.00
2018-01-20T17:19:52.139Z,16.52
2018-01-20T17:22:21.645Z,11.25
2018-01-20T17:24:51.212Z,14.07
2018-01-20T17:27:20.676Z,10.25
2018-01-20T17:29:50.177Z,10.25
2018-01-20T17:32:19.693Z,10.18
2018-01-20T17:34:49.206Z,11.73
2018-01-20T17:37:18.664Z,9.82
2018-01-20T17:39:48.175Z,9.23
2018-01-20T17:42:17.674Z,8.15
2018-01-20T17:44:47.166Z,10.40
2018-01-20T17:47:16.654Z,6.30
2018-01-20T17:49:46.173Z,8.40
2018-01-20T17:52:15.694Z,11.70
2018-01-20T17:54:45.213Z,7.43
2018-01-20T17:57:14.711Z,10.40
2018-01-20T17:59:44.212Z,9.93
2018-01-20T18:02:13.722Z,7.80
2018-01-20T18:04:43.222Z,7.07
2018-01-20T18:07:12.754Z,10.15
2018-01-20T18:09:42.319Z,7.82
2018-01-20T18:12:11.834Z,7.72
2018-01-20T18:14:41.293Z,7.15
2018-01-20T18:17:10.788Z,9.57
2018-01-20T18:19:40.263Z,7.37
2018-01-20T18:22:09.764Z,7.43
2018-01-20T18:24:39.234Z,6.43
2018-01-20T18:27:08.792Z,8.70
2018-01-20T18:29:38.310Z,8.30
2018-01-20T18:32:07.828Z,7.28
2018-01-20T18:34:37.371Z,6.18
2018-01-20T18:37:06.829Z,8.02
2018-01-20T18:39:36.357Z,8.15
2018-01-20T18:42:05.850Z,10.18
2018-01-20T18:44:35.400Z,11.55
2018-01-20T18:47:04.911Z,13.48
2018-01-20T18:49:34.413Z,14.18
2018-01-20T18:52:03.896Z,15.13
2018-01-20T18:54:33.419Z,11.12
2018-01-20T18:57:02.892Z,10.60
2018-01-20T18:59:32.549Z,8.43
2018-01-20T19:02:02.042Z,7.20
2018-01-20T19:04:31.524Z,5.90
2018-01-20T19:07:00.990Z,5.85
2018-01-20T19:09:30.491Z,7.72
2018-01-20T19:11:59.972Z,7.07
2018-01-20T19:14:29.502Z,6.68
2018-01-20T19:16:59.023Z,8.85
2018-01-20T19:19:28.532Z,7.53
2018-01-20T19:21:58.036Z,7.85
2018-01-20T19:24:27.506Z,8.23
2018-01-20T19:26:57.035Z,5.82
2018-01-20T19:29:26.533Z,6.35
2018-01-20T19:31:56.000Z,8.38
2018-01-20T19:34:25.510Z,7.97
2018-01-20T19:36:54.978Z,5.80
2018-01-20T19:39:24.477Z,5.85
2018-01-20T19:41:53.918Z,9.57
2018-01-20T19:44:23.606Z,5.20
2018-01-20T19:46:53.078Z,4.87
2018-01-20T19:49:22.599Z,5.80
2018-01-20T19:51:52.154Z,6.05
2018-01-20T19:54:21.639Z,4.82
2018-01-20T19:56:51.325Z,8.07
2018-01-20T19:59:20.917Z,7.05
2018-01-20T20:01:50.399Z,5.78
2018-01-20T20:04:19.954Z,7.65
2018-01-20T20:06:49.433Z,5.93
2018-01-20T20:09:18.958Z,6.20
2018-01-20T20:11:48.437Z,5.90
2018-01-20T20:14:18.074Z,5.40
2018-01-20T20:16:47.508Z,7.40
2018-01-20T20:19:16.969Z,8.65
2018-01-20T20:21:46.701Z,5.62
2018-01-20T20:24:16.208Z,7.60
2018-01-20T20:26:45.655Z,5.95
2018-01-20T20:29:15.153Z,5.15
2018-01-20T20:31:44.622Z,6.03
2018-01-20T20:34:14.241Z,10.38
2018-01-20T20:36:43.798Z,7.45
2018-01-20T20:39:13.275Z,10.38
2018-01-20T20:41:42.878Z,5.25
2018-01-20T20:44:12.329Z,5.65
2018-01-20T20:46:41.877Z,9.32
2018-01-20T20:49:12.017Z,8.25
2018-01-20T20:51:41.569Z,16.42
2018-01-20T20:54:11.085Z,19.92
2018-01-20T20:56:40.598Z,31.92
2018-01-20T20:59:10.185Z,30.37
2018-01-20T21:01:39.720Z,24.00
2018-01-20T21:04:09.218Z,21.45
2018-01-20T21:06:38.773Z,19.90
2018-01-20T21:09:08.318Z,14.75
2018-01-20T21:11:37.835Z,18.73
2018-01-20T21:14:07.477Z,13.85
2018-01-20T21:16:37.024Z,16.27
2018-01-20T21:19:06.546Z,13.80
2018-01-20T21:21:36.039Z,17.60
2018-01-20T21:24:05.629Z,19.67
2018-01-20T21:26:35.085Z,20.30
2018-01-20T21:29:04.598Z,20.60
2018-01-20T21:31:34.112Z,16.62
2018-01-20T21:34:03.622Z,17.33
2018-01-20T21:36:33.118Z,22.55
2018-01-20T21:39:02.754Z,14.05
2018-01-20T21:41:32.235Z,12.60
2018-01-20T21:44:01.735Z,13.43
2018-01-20T21:46:31.371Z,8.93
2018-01-20T21:49:00.871Z,9.93
2018-01-20T21:51:30.404Z,9.05
2018-01-20T21:53:59.872Z,10.68
2018-01-20T21:56:29.424Z,12.30
2018-01-20T21:58:58.941Z,14.00
2018-01-20T22:01:28.429Z,19.20
2018-01-20T22:03:57.985Z,25.20
2018-01-20T22:06:27.524Z,15.80
2018-01-20T22:08:57.060Z,15.80
2018-01-20T22:11:26.486Z,16.98
2018-01-20T22:13:55.984Z,15.82
2018-01-20T22:16:25.495Z,15.10
2018-01-20T22:18:54.987Z,14.70
2018-01-20T22:21:24.548Z,11.88
2018-01-20T22:23:53.997Z,12.15
2018-01-20T22:26:23.488Z,14.98
2018-01-20T22:28:52.980Z,18.65
2018-01-20T22:31:22.498Z,18.33
2018-01-20T22:33:52.002Z,21.67
2018-01-20T22:36:21.492Z,15.68
2018-01-20T22:38:50.981Z,14.38
2018-01-20T22:41:20.454Z,13.85
2018-01-20T22:43:49.971Z,18.25
2018-01-20T22:46:19.446Z,15.10
2018-01-20T22:48:48.943Z,12.02
2018-01-20T22:51:18.423Z,13.25
2018-01-20T22:53:47.934Z,13.55
2018-01-20T22:56:18.287Z,18.90
2018-01-20T22:58:48.634Z,32.95
2018-01-20T23:01:23.955Z,18.58
2018-01-20T23:03:53.429Z,16.12
2018-01-20T23:06:22.921Z,15.48
2018-01-20T23:08:52.395Z,17.48
2018-01-20T23:11:21.916Z,14.98
2018-01-20T23:13:51.382Z,15.90
2018-01-20T23:16:20.911Z,14.70
2018-01-20T23:18:50.575Z,14.57
2018-01-20T23:21:20.058Z,14.68
2018-01-20T23:23:49.596Z,14.07
2018-01-20T23:26:19.096Z,9.40
2018-01-20T23:28:48.633Z,9.55
2018-01-20T23:31:18.102Z,14.15
2018-01-20T23:33:47.601Z,11.02
2018-01-20T23:36:17.076Z,7.50
2018-01-20T23:38:46.555Z,9.85
2018-01-20T23:41:16.207Z,12.40
2018-01-20T23:43:45.721Z,10.43
2018-01-20T23:46:15.236Z,10.48
2018-01-20T23:48:44.805Z,8.68
2018-01-20T23:51:14.463Z,9.20
2018-01-20T23:53:43.953Z,10.13
2018-01-20T23:56:13.625Z,11.73
2018-01-20T23:58:43.072Z,14.05
